sensor_id;sensor_type;location;lat;lon;timestamp;P1;durP1;ratioP1;P2;durP2;ratioP2
41568;SDS011;27283;52.504;13.358;2023-08-24T00:00:17;8.68;;;4.55;;
41568;SDS011;27283;52.504;13.358;2023-08-24T00:03:31;7.57;;;4.45;;
41568;SDS011;27283;52.504;13.358;2023-08-24T00:06:09;10.35;;;5.47;;
41568;SDS011;27283;52.504;13.358;2023-08-24T00:08:42;9.10;;;5.07;;
41568;SDS011;27283;52.504;13.358;2023-08-24T00:11:19;10.45;;;4.97;;
41568;SDS011;27283;52.504;13.358;2023-08-24T00:13:52;8.18;;;5.07;;
41568;SDS011;27283;52.504;13.358;2023-08-24T00:16:24;10.93;;;5.03;;
41568;SDS011;27283;52.504;13.358;2023-08-24T00:18:57;8.50;;;5.03;;
41568;SDS011;27283;52.504;13.358;2023-08-24T00:21:30;12.20;;;4.70;;
41568;SDS011;27283;52.504;13.358;2023-08-24T00:24:02;8.48;;;5.10;;
41568;SDS011;27283;52.504;13.358;2023-08-24T00:26:37;9.23;;;4.50;;
41568;SDS011;27283;52.504;13.358;2023-08-24T00:29:19;7.85;;;4.43;;
41568;SDS011;27283;52.504;13.358;2023-08-24T00:32:07;8.38;;;4.90;;
41568;SDS011;27283;52.504;13.358;2023-08-24T00:34:39;7.63;;;4.82;;
41568;SDS011;27283;52.504;13.358;2023-08-24T00:37:12;9.60;;;4.85;;
41568;SDS011;27283;52.504;13.358;2023-08-24T00:39:44;10.75;;;4.70;;
41568;SDS011;27283;52.504;13.358;2023-08-24T00:42:19;8.73;;;4.57;;
41568;SDS011;27283;52.504;13.358;2023-08-24T00:44:52;9.93;;;5.13;;
41568;SDS011;27283;52.504;13.358;2023-08-24T00:47:27;9.57;;;4.88;;
41568;SDS011;27283;52.504;13.358;2023-08-24T00:50:01;8.10;;;5.00;;
41568;SDS011;27283;52.504;13.358;2023-08-24T00:52:40;11.95;;;5.07;;
41568;SDS011;27283;52.504;13.358;2023-08-24T00:55:14;8.95;;;4.85;;
41568;SDS011;27283;52.504;13.358;2023-08-24T00:57:50;11.88;;;5.15;;
41568;SDS011;27283;52.504;13.358;2023-08-24T01:00:24;7.70;;;4.90;;
41568;SDS011;27283;52.504;13.358;2023-08-24T01:03:29;9.70;;;5.00;;
41568;SDS011;27283;52.504;13.358;2023-08-24T01:06:02;10.07;;;5.30;;
41568;SDS011;27283;52.504;13.358;2023-08-24T01:08:35;9.55;;;5.15;;
41568;SDS011;27283;52.504;13.358;2023-08-24T01:11:09;11.05;;;5.32;;
41568;SDS011;27283;52.504;13.358;2023-08-24T01:13:56;11.10;;;5.03;;
41568;SDS011;27283;52.504;13.358;2023-08-24T01:16:36;8.93;;;5.07;;
41568;SDS011;27283;52.504;13.358;2023-08-24T01:19:16;9.18;;;5.07;;
41568;SDS011;27283;52.504;13.358;2023-08-24T01:22:05;10.10;;;4.68;;
41568;SDS011;27283;52.504;13.358;2023-08-24T01:25:00;8.32;;;5.20;;
41568;SDS011;27283;52.504;13.358;2023-08-24T01:27:41;9.52;;;5.35;;
41568;SDS011;27283;52.504;13.358;2023-08-24T01:33:09;11.15;;;4.75;;
41568;SDS011;27283;52.504;13.358;2023-08-24T01:35:41;8.50;;;5.22;;
41568;SDS011;27283;52.504;13.358;2023-08-24T01:38:14;7.25;;;4.78;;
41568;SDS011;27283;52.504;13.358;2023-08-24T01:40:53;8.30;;;5.35;;
41568;SDS011;27283;52.504;13.358;2023-08-24T01:43:44;9.10;;;5.00;;
41568;SDS011;27283;52.504;13.358;2023-08-24T01:46:50;8.23;;;4.72;;
41568;SDS011;27283;52.504;13.358;2023-08-24T01:49:42;11.32;;;5.28;;
41568;SDS011;27283;52.504;13.358;2023-08-24T01:52:15;9.15;;;4.55;;
41568;SDS011;27283;52.504;13.358;2023-08-24T01:54:49;8.35;;;4.63;;
41568;SDS011;27283;52.504;13.358;2023-08-24T01:57:21;8.48;;;4.75;;
41568;SDS011;27283;52.504;13.358;2023-08-24T02:03:17;7.00;;;4.28;;
41568;SDS011;27283;52.504;13.358;2023-08-24T02:05:50;8.25;;;4.72;;
41568;SDS011;27283;52.504;13.358;2023-08-24T02:08:43;6.43;;;4.38;;
41568;SDS011;27283;52.504;13.358;2023-08-24T02:11:59;7.25;;;4.60;;
41568;SDS011;27283;52.504;13.358;2023-08-24T02:14:31;6.45;;;4.57;;
41568;SDS011;27283;52.504;13.358;2023-08-24T02:17:06;6.95;;;4.63;;
41568;SDS011;27283;52.504;13.358;2023-08-24T02:19:38;9.82;;;4.35;;
41568;SDS011;27283;52.504;13.358;2023-08-24T02:22:11;10.27;;;4.57;;
41568;SDS011;27283;52.504;13.358;2023-08-24T02:24:43;8.73;;;4.00;;
41568;SDS011;27283;52.504;13.358;2023-08-24T02:27:16;7.57;;;4.22;;
41568;SDS011;27283;52.504;13.358;2023-08-24T02:29:48;8.27;;;4.15;;
41568;SDS011;27283;52.504;13.358;2023-08-24T02:32:23;8.70;;;4.45;;
41568;SDS011;27283;52.504;13.358;2023-08-24T02:34:58;7.57;;;4.43;;
41568;SDS011;27283;52.504;13.358;2023-08-24T02:37:31;9.27;;;4.30;;
41568;SDS011;27283;52.504;13.358;2023-08-24T02:40:04;8.82;;;4.43;;
41568;SDS011;27283;52.504;13.358;2023-08-24T02:42:38;8.15;;;4.32;;
41568;SDS011;27283;52.504;13.358;2023-08-24T02:45:10;8.82;;;4.72;;
41568;SDS011;27283;52.504;13.358;2023-08-24T02:47:45;11.05;;;5.72;;
41568;SDS011;27283;52.504;13.358;2023-08-24T02:50:18;10.27;;;5.47;;
41568;SDS011;27283;52.504;13.358;2023-08-24T02:52:50;9.25;;;5.28;;
41568;SDS011;27283;52.504;13.358;2023-08-24T02:55:36;7.80;;;5.35;;
41568;SDS011;27283;52.504;13.358;2023-08-24T02:58:09;8.55;;;4.88;;
41568;SDS011;27283;52.504;13.358;2023-08-24T03:00:42;10.50;;;5.50;;
41568;SDS011;27283;52.504;13.358;2023-08-24T03:03:20;8.35;;;5.18;;
41568;SDS011;27283;52.504;13.358;2023-08-24T03:05:55;8.50;;;5.80;;
41568;SDS011;27283;52.504;13.358;2023-08-24T03:08:32;8.32;;;5.60;;
41568;SDS011;27283;52.504;13.358;2023-08-24T03:11:19;9.98;;;5.50;;
41568;SDS011;27283;52.504;13.358;2023-08-24T03:13:54;8.43;;;5.45;;
41568;SDS011;27283;52.504;13.358;2023-08-24T03:16:30;10.25;;;6.15;;
41568;SDS011;27283;52.504;13.358;2023-08-24T03:19:06;9.07;;;5.90;;
41568;SDS011;27283;52.504;13.358;2023-08-24T03:21:39;11.82;;;6.18;;
41568;SDS011;27283;52.504;13.358;2023-08-24T03:24:12;10.05;;;5.65;;
41568;SDS011;27283;52.504;13.358;2023-08-24T03:26:44;9.68;;;5.47;;
41568;SDS011;27283;52.504;13.358;2023-08-24T03:29:17;8.93;;;5.05;;
41568;SDS011;27283;52.504;13.358;2023-08-24T03:31:49;7.18;;;5.10;;
41568;SDS011;27283;52.504;13.358;2023-08-24T03:34:24;10.93;;;5.35;;
41568;SDS011;27283;52.504;13.358;2023-08-24T03:36:58;9.63;;;5.38;;
41568;SDS011;27283;52.504;13.358;2023-08-24T03:42:39;6.85;;;4.63;;
41568;SDS011;27283;52.504;13.358;2023-08-24T03:45:12;6.55;;;4.80;;
41568;SDS011;27283;52.504;13.358;2023-08-24T03:47:44;8.35;;;4.53;;
41568;SDS011;27283;52.504;13.358;2023-08-24T03:50:20;9.05;;;4.55;;
41568;SDS011;27283;52.504;13.358;2023-08-24T03:52:53;9.05;;;4.72;;
41568;SDS011;27283;52.504;13.358;2023-08-24T03:55:26;8.45;;;5.15;;
41568;SDS011;27283;52.504;13.358;2023-08-24T03:57:58;7.68;;;4.40;;
41568;SDS011;27283;52.504;13.358;2023-08-24T04:00:32;8.00;;;4.68;;
41568;SDS011;27283;52.504;13.358;2023-08-24T04:03:05;6.45;;;4.10;;
41568;SDS011;27283;52.504;13.358;2023-08-24T04:05:44;7.00;;;4.20;;
41568;SDS011;27283;52.504;13.358;2023-08-24T04:08:25;11.15;;;6.68;;
41568;SDS011;27283;52.504;13.358;2023-08-24T04:11:01;6.70;;;4.40;;
41568;SDS011;27283;52.504;13.358;2023-08-24T04:13:53;9.52;;;5.00;;
41568;SDS011;27283;52.504;13.358;2023-08-24T04:16:26;8.68;;;5.47;;
41568;SDS011;27283;52.504;13.358;2023-08-24T04:18:59;8.02;;;4.90;;
41568;SDS011;27283;52.504;13.358;2023-08-24T04:21:34;8.90;;;4.03;;
41568;SDS011;27283;52.504;13.358;2023-08-24T04:24:07;6.00;;;4.20;;
41568;SDS011;27283;52.504;13.358;2023-08-24T04:26:40;9.48;;;4.25;;
41568;SDS011;27283;52.504;13.358;2023-08-24T04:29:17;8.60;;;3.80;;
41568;SDS011;27283;52.504;13.358;2023-08-24T04:31:50;7.18;;;3.72;;
41568;SDS011;27283;52.504;13.358;2023-08-24T04:34:25;8.73;;;3.90;;
41568;SDS011;27283;52.504;13.358;2023-08-24T04:37:06;5.05;;;3.90;;
41568;SDS011;27283;52.504;13.358;2023-08-24T04:39:39;6.32;;;3.67;;
41568;SDS011;27283;52.504;13.358;2023-08-24T04:42:11;8.45;;;3.95;;
41568;SDS011;27283;52.504;13.358;2023-08-24T04:44:43;6.82;;;4.05;;
41568;SDS011;27283;52.504;13.358;2023-08-24T04:47:16;6.20;;;3.63;;
41568;SDS011;27283;52.504;13.358;2023-08-24T04:49:48;8.63;;;4.20;;
41568;SDS011;27283;52.504;13.358;2023-08-24T04:52:23;8.68;;;3.85;;
41568;SDS011;27283;52.504;13.358;2023-08-24T04:54:56;5.22;;;3.88;;
41568;SDS011;27283;52.504;13.358;2023-08-24T04:57:29;6.45;;;3.70;;
41568;SDS011;27283;52.504;13.358;2023-08-24T05:00:05;7.43;;;4.13;;
41568;SDS011;27283;52.504;13.358;2023-08-24T05:02:56;9.27;;;5.38;;
41568;SDS011;27283;52.504;13.358;2023-08-24T05:05:29;8.98;;;4.25;;
41568;SDS011;27283;52.504;13.358;2023-08-24T05:08:05;7.38;;;4.22;;
41568;SDS011;27283;52.504;13.358;2023-08-24T05:10:40;8.55;;;4.32;;
41568;SDS011;27283;52.504;13.358;2023-08-24T05:13:13;7.75;;;4.10;;
41568;SDS011;27283;52.504;13.358;2023-08-24T05:15:51;7.35;;;4.25;;
41568;SDS011;27283;52.504;13.358;2023-08-24T05:18:40;9.48;;;3.90;;
41568;SDS011;27283;52.504;13.358;2023-08-24T05:21:12;9.05;;;4.00;;
41568;SDS011;27283;52.504;13.358;2023-08-24T05:23:47;7.35;;;3.95;;
41568;SDS011;27283;52.504;13.358;2023-08-24T05:26:20;7.75;;;4.35;;
41568;SDS011;27283;52.504;13.358;2023-08-24T05:29:00;6.25;;;4.38;;
41568;SDS011;27283;52.504;13.358;2023-08-24T05:31:33;9.52;;;4.20;;
41568;SDS011;27283;52.504;13.358;2023-08-24T05:34:05;7.97;;;4.30;;
41568;SDS011;27283;52.504;13.358;2023-08-24T05:36:38;9.57;;;4.00;;
41568;SDS011;27283;52.504;13.358;2023-08-24T05:39:13;6.65;;;4.13;;
41568;SDS011;27283;52.504;13.358;2023-08-24T05:41:49;11.63;;;4.72;;
41568;SDS011;27283;52.504;13.358;2023-08-24T05:44:23;12.32;;;3.97;;
41568;SDS011;27283;52.504;13.358;2023-08-24T05:46:55;7.85;;;4.20;;
41568;SDS011;27283;52.504;13.358;2023-08-24T05:49:32;9.88;;;4.32;;
41568;SDS011;27283;52.504;13.358;2023-08-24T05:52:06;10.85;;;4.50;;
41568;SDS011;27283;52.504;13.358;2023-08-24T05:54:46;11.05;;;3.92;;
41568;SDS011;27283;52.504;13.358;2023-08-24T05:57:19;8.15;;;4.47;;
41568;SDS011;27283;52.504;13.358;2023-08-24T05:59:51;8.95;;;4.40;;
41568;SDS011;27283;52.504;13.358;2023-08-24T06:02:24;11.82;;;3.90;;
41568;SDS011;27283;52.504;13.358;2023-08-24T06:04:59;9.23;;;4.25;;
41568;SDS011;27283;52.504;13.358;2023-08-24T06:07:31;7.25;;;3.88;;
41568;SDS011;27283;52.504;13.358;2023-08-24T06:10:10;6.03;;;3.78;;
41568;SDS011;27283;52.504;13.358;2023-08-24T06:12:42;9.85;;;4.38;;
41568;SDS011;27283;52.504;13.358;2023-08-24T06:15:16;8.85;;;3.78;;
41568;SDS011;27283;52.504;13.358;2023-08-24T06:17:52;7.45;;;3.83;;
41568;SDS011;27283;52.504;13.358;2023-08-24T06:20:24;9.80;;;3.83;;
41568;SDS011;27283;52.504;13.358;2023-08-24T06:22:57;7.55;;;3.33;;
41568;SDS011;27283;52.504;13.358;2023-08-24T06:25:32;5.13;;;3.13;;
41568;SDS011;27283;52.504;13.358;2023-08-24T06:28:05;6.22;;;3.10;;
41568;SDS011;27283;52.504;13.358;2023-08-24T06:30:39;5.88;;;2.70;;
41568;SDS011;27283;52.504;13.358;2023-08-24T06:33:18;6.47;;;3.25;;
41568;SDS011;27283;52.504;13.358;2023-08-24T06:36:03;5.85;;;2.88;;
41568;SDS011;27283;52.504;13.358;2023-08-24T06:38:50;7.15;;;3.10;;
41568;SDS011;27283;52.504;13.358;2023-08-24T06:41:38;9.02;;;3.13;;
41568;SDS011;27283;52.504;13.358;2023-08-24T06:44:11;8.27;;;2.92;;
41568;SDS011;27283;52.504;13.358;2023-08-24T06:46:43;12.70;;;3.10;;
41568;SDS011;27283;52.504;13.358;2023-08-24T06:49:32;6.25;;;3.00;;
41568;SDS011;27283;52.504;13.358;2023-08-24T06:52:34;7.35;;;3.00;;
41568;SDS011;27283;52.504;13.358;2023-08-24T06:55:18;9.63;;;3.25;;
41568;SDS011;27283;52.504;13.358;2023-08-24T06:58:04;7.65;;;3.40;;
41568;SDS011;27283;52.504;13.358;2023-08-24T07:03:38;8.73;;;3.58;;
41568;SDS011;27283;52.504;13.358;2023-08-24T07:06:33;6.22;;;3.15;;
41568;SDS011;27283;52.504;13.358;2023-08-24T07:09:06;7.07;;;2.90;;
41568;SDS011;27283;52.504;13.358;2023-08-24T07:11:38;8.55;;;3.00;;
41568;SDS011;27283;52.504;13.358;2023-08-24T07:14:14;5.72;;;2.78;;
41568;SDS011;27283;52.504;13.358;2023-08-24T07:16:46;7.78;;;2.63;;
41568;SDS011;27283;52.504;13.358;2023-08-24T07:19:19;5.43;;;2.80;;
41568;SDS011;27283;52.504;13.358;2023-08-24T07:21:52;8.15;;;2.90;;
41568;SDS011;27283;52.504;13.358;2023-08-24T07:24:24;6.30;;;2.90;;
41568;SDS011;27283;52.504;13.358;2023-08-24T07:27:12;8.32;;;3.30;;
41568;SDS011;27283;52.504;13.358;2023-08-24T07:29:55;8.23;;;2.85;;
41568;SDS011;27283;52.504;13.358;2023-08-24T07:33:06;9.88;;;2.88;;
41568;SDS011;27283;52.504;13.358;2023-08-24T07:35:51;6.57;;;3.15;;
41568;SDS011;27283;52.504;13.358;2023-08-24T07:38:28;7.47;;;3.78;;
41568;SDS011;27283;52.504;13.358;2023-08-24T07:41:06;6.30;;;3.13;;
41568;SDS011;27283;52.504;13.358;2023-08-24T07:43:51;5.07;;;3.00;;
41568;SDS011;27283;52.504;13.358;2023-08-24T07:46:44;8.60;;;2.95;;
41568;SDS011;27283;52.504;13.358;2023-08-24T07:49:28;6.65;;;3.13;;
41568;SDS011;27283;52.504;13.358;2023-08-24T07:52:03;5.65;;;2.75;;
41568;SDS011;27283;52.504;13.358;2023-08-24T07:54:36;4.35;;;2.55;;
41568;SDS011;27283;52.504;13.358;2023-08-24T07:57:08;7.43;;;2.97;;
41568;SDS011;27283;52.504;13.358;2023-08-24T07:59:41;7.50;;;2.90;;
41568;SDS011;27283;52.504;13.358;2023-08-24T08:02:25;4.97;;;2.90;;
41568;SDS011;27283;52.504;13.358;2023-08-24T08:05:13;8.88;;;3.30;;
41568;SDS011;27283;52.504;13.358;2023-08-24T08:07:51;9.70;;;3.05;;
41568;SDS011;27283;52.504;13.358;2023-08-24T08:10:23;13.25;;;3.60;;
41568;SDS011;27283;52.504;13.358;2023-08-24T08:12:56;9.85;;;3.15;;
41568;SDS011;27283;52.504;13.358;2023-08-24T08:15:28;7.35;;;3.05;;
41568;SDS011;27283;52.504;13.358;2023-08-24T08:18:03;5.68;;;3.15;;
41568;SDS011;27283;52.504;13.358;2023-08-24T08:20:37;6.65;;;3.47;;
41568;SDS011;27283;52.504;13.358;2023-08-24T08:23:11;7.15;;;3.38;;
41568;SDS011;27283;52.504;13.358;2023-08-24T08:25:59;4.63;;;2.80;;
41568;SDS011;27283;52.504;13.358;2023-08-24T08:28:46;8.77;;;3.83;;
41568;SDS011;27283;52.504;13.358;2023-08-24T08:31:49;8.40;;;3.22;;
41568;SDS011;27283;52.504;13.358;2023-08-24T08:34:58;7.20;;;3.17;;
41568;SDS011;27283;52.504;13.358;2023-08-24T08:37:43;6.80;;;3.10;;
41568;SDS011;27283;52.504;13.358;2023-08-24T08:40:20;6.15;;;2.90;;
41568;SDS011;27283;52.504;13.358;2023-08-24T08:42:57;7.72;;;2.97;;
41568;SDS011;27283;52.504;13.358;2023-08-24T08:45:40;8.32;;;2.97;;
41568;SDS011;27283;52.504;13.358;2023-08-24T08:48:44;4.28;;;2.78;;
41568;SDS011;27283;52.504;13.358;2023-08-24T08:54:29;5.32;;;2.78;;
41568;SDS011;27283;52.504;13.358;2023-08-24T08:57:05;6.35;;;3.15;;
41568;SDS011;27283;52.504;13.358;2023-08-24T08:59:38;6.20;;;3.10;;
41568;SDS011;27283;52.504;13.358;2023-08-24T09:02:27;5.00;;;2.60;;
41568;SDS011;27283;52.504;13.358;2023-08-24T09:05:14;5.05;;;2.83;;
41568;SDS011;27283;52.504;13.358;2023-08-24T09:07:51;7.38;;;3.05;;
41568;SDS011;27283;52.504;13.358;2023-08-24T09:10:26;7.57;;;2.85;;
41568;SDS011;27283;52.504;13.358;2023-08-24T09:13:30;9.02;;;3.03;;
41568;SDS011;27283;52.504;13.358;2023-08-24T09:16:46;7.25;;;2.90;;
41568;SDS011;27283;52.504;13.358;2023-08-24T09:19:40;6.22;;;3.00;;
41568;SDS011;27283;52.504;13.358;2023-08-24T09:22:13;11.13;;;3.17;;
41568;SDS011;27283;52.504;13.358;2023-08-24T09:24:51;7.43;;;2.75;;
41568;SDS011;27283;52.504;13.358;2023-08-24T09:27:23;8.57;;;2.90;;
41568;SDS011;27283;52.504;13.358;2023-08-24T09:29:56;7.35;;;2.70;;
41568;SDS011;27283;52.504;13.358;2023-08-24T09:32:39;7.78;;;3.10;;
41568;SDS011;27283;52.504;13.358;2023-08-24T09:35:16;7.72;;;3.20;;
41568;SDS011;27283;52.504;13.358;2023-08-24T09:37:59;6.25;;;2.90;;
41568;SDS011;27283;52.504;13.358;2023-08-24T09:40:50;5.55;;;3.00;;
41568;SDS011;27283;52.504;13.358;2023-08-24T09:43:23;5.20;;;2.92;;
41568;SDS011;27283;52.504;13.358;2023-08-24T09:46:05;7.85;;;2.70;;
41568;SDS011;27283;52.504;13.358;2023-08-24T09:48:58;10.35;;;2.85;;
41568;SDS011;27283;52.504;13.358;2023-08-24T09:51:30;10.60;;;2.65;;
41568;SDS011;27283;52.504;13.358;2023-08-24T09:54:09;7.53;;;2.13;;
41568;SDS011;27283;52.504;13.358;2023-08-24T09:56:47;6.78;;;2.38;;
41568;SDS011;27283;52.504;13.358;2023-08-24T10:02:14;8.15;;;2.58;;
41568;SDS011;27283;52.504;13.358;2023-08-24T10:04:54;6.75;;;2.53;;
41568;SDS011;27283;52.504;13.358;2023-08-24T10:07:35;7.28;;;2.65;;
41568;SDS011;27283;52.504;13.358;2023-08-24T10:10:40;7.85;;;3.13;;
41568;SDS011;27283;52.504;13.358;2023-08-24T10:13:29;4.88;;;2.30;;
41568;SDS011;27283;52.504;13.358;2023-08-24T10:16:41;4.38;;;2.33;;
41568;SDS011;27283;52.504;13.358;2023-08-24T10:19:40;5.68;;;2.28;;
41568;SDS011;27283;52.504;13.358;2023-08-24T10:22:14;4.75;;;2.40;;
41568;SDS011;27283;52.504;13.358;2023-08-24T10:25:50;5.38;;;1.95;;
41568;SDS011;27283;52.504;13.358;2023-08-24T10:29:01;5.75;;;2.55;;
41568;SDS011;27283;52.504;13.358;2023-08-24T10:31:46;6.20;;;2.53;;
41568;SDS011;27283;52.504;13.358;2023-08-24T10:34:35;5.53;;;2.50;;
41568;SDS011;27283;52.504;13.358;2023-08-24T10:37:24;3.83;;;2.25;;
41568;SDS011;27283;52.504;13.358;2023-08-24T10:40:14;7.38;;;2.53;;
41568;SDS011;27283;52.504;13.358;2023-08-24T10:43:08;5.05;;;2.50;;
41568;SDS011;27283;52.504;13.358;2023-08-24T10:45:57;5.18;;;2.38;;
41568;SDS011;27283;52.504;13.358;2023-08-24T10:48:31;6.22;;;2.53;;
41568;SDS011;27283;52.504;13.358;2023-08-24T10:52:06;4.70;;;2.17;;
41568;SDS011;27283;52.504;13.358;2023-08-24T10:58:37;7.07;;;2.65;;
41568;SDS011;27283;52.504;13.358;2023-08-24T11:01:25;4.75;;;2.53;;
41568;SDS011;27283;52.504;13.358;2023-08-24T11:04:10;5.38;;;2.58;;
41568;SDS011;27283;52.504;13.358;2023-08-24T11:06:52;5.10;;;2.60;;
41568;SDS011;27283;52.504;13.358;2023-08-24T11:09:51;5.72;;;2.45;;
41568;SDS011;27283;52.504;13.358;2023-08-24T11:15:53;6.43;;;2.70;;
41568;SDS011;27283;52.504;13.358;2023-08-24T11:18:47;6.28;;;2.60;;
41568;SDS011;27283;52.504;13.358;2023-08-24T11:21:47;5.78;;;2.65;;
41568;SDS011;27283;52.504;13.358;2023-08-24T11:24:45;6.20;;;2.80;;
41568;SDS011;27283;52.504;13.358;2023-08-24T11:27:24;8.05;;;2.50;;
41568;SDS011;27283;52.504;13.358;2023-08-24T11:30:29;8.20;;;2.70;;
41568;SDS011;27283;52.504;13.358;2023-08-24T11:33:11;9.45;;;3.30;;
41568;SDS011;27283;52.504;13.358;2023-08-24T11:35:59;8.38;;;2.90;;
41568;SDS011;27283;52.504;13.358;2023-08-24T11:38:44;5.65;;;2.42;;
41568;SDS011;27283;52.504;13.358;2023-08-24T11:41:32;7.22;;;3.28;;
41568;SDS011;27283;52.504;13.358;2023-08-24T11:44:44;6.50;;;2.90;;
41568;SDS011;27283;52.504;13.358;2023-08-24T11:47:38;6.53;;;2.83;;
41568;SDS011;27283;52.504;13.358;2023-08-24T11:50:19;6.03;;;3.30;;
41568;SDS011;27283;52.504;13.358;2023-08-24T11:53:00;6.15;;;2.70;;
41568;SDS011;27283;52.504;13.358;2023-08-24T11:55:39;8.90;;;3.28;;
41568;SDS011;27283;52.504;13.358;2023-08-24T11:58:37;10.40;;;3.67;;
41568;SDS011;27283;52.504;13.358;2023-08-24T12:01:16;7.25;;;3.58;;
41568;SDS011;27283;52.504;13.358;2023-08-24T12:04:07;9.50;;;2.88;;
41568;SDS011;27283;52.504;13.358;2023-08-24T12:06:45;8.10;;;3.95;;
41568;SDS011;27283;52.504;13.358;2023-08-24T12:09:31;7.28;;;3.85;;
41568;SDS011;27283;52.504;13.358;2023-08-24T12:12:03;7.68;;;3.40;;
41568;SDS011;27283;52.504;13.358;2023-08-24T12:14:42;8.75;;;3.22;;
41568;SDS011;27283;52.504;13.358;2023-08-24T12:17:20;6.88;;;3.60;;
41568;SDS011;27283;52.504;13.358;2023-08-24T12:19:57;8.43;;;3.30;;
41568;SDS011;27283;52.504;13.358;2023-08-24T12:22:36;8.52;;;3.60;;
41568;SDS011;27283;52.504;13.358;2023-08-24T12:25:18;6.68;;;3.10;;
41568;SDS011;27283;52.504;13.358;2023-08-24T12:28:28;7.03;;;2.90;;
41568;SDS011;27283;52.504;13.358;2023-08-24T12:31:04;8.73;;;3.30;;
41568;SDS011;27283;52.504;13.358;2023-08-24T12:33:42;5.72;;;3.15;;
41568;SDS011;27283;52.504;13.358;2023-08-24T12:36:16;7.10;;;3.40;;
41568;SDS011;27283;52.504;13.358;2023-08-24T12:39:03;5.72;;;2.92;;
41568;SDS011;27283;52.504;13.358;2023-08-24T12:41:43;5.68;;;3.40;;
41568;SDS011;27283;52.504;13.358;2023-08-24T12:44:29;7.35;;;3.40;;
41568;SDS011;27283;52.504;13.358;2023-08-24T12:47:26;4.70;;;3.42;;
41568;SDS011;27283;52.504;13.358;2023-08-24T12:49:58;7.88;;;3.10;;
41568;SDS011;27283;52.504;13.358;2023-08-24T12:52:36;6.18;;;3.47;;
41568;SDS011;27283;52.504;13.358;2023-08-24T12:55:16;7.85;;;3.40;;
41568;SDS011;27283;52.504;13.358;2023-08-24T12:58:11;7.72;;;2.97;;
41568;SDS011;27283;52.504;13.358;2023-08-24T13:00:46;4.72;;;2.90;;
41568;SDS011;27283;52.504;13.358;2023-08-24T13:03:36;5.38;;;3.00;;
41568;SDS011;27283;52.504;13.358;2023-08-24T13:06:18;4.45;;;3.03;;
41568;SDS011;27283;52.504;13.358;2023-08-24T13:08:52;7.65;;;4.78;;
41568;SDS011;27283;52.504;13.358;2023-08-24T13:11:25;6.70;;;3.60;;
41568;SDS011;27283;52.504;13.358;2023-08-24T13:14:03;5.32;;;3.20;;
41568;SDS011;27283;52.504;13.358;2023-08-24T13:16:52;9.70;;;3.50;;
41568;SDS011;27283;52.504;13.358;2023-08-24T13:19:59;4.05;;;2.90;;
41568;SDS011;27283;52.504;13.358;2023-08-24T13:22:43;5.68;;;2.80;;
41568;SDS011;27283;52.504;13.358;2023-08-24T13:25:33;4.75;;;3.03;;
41568;SDS011;27283;52.504;13.358;2023-08-24T13:28:33;7.70;;;3.20;;
41568;SDS011;27283;52.504;13.358;2023-08-24T13:31:30;6.18;;;2.75;;
41568;SDS011;27283;52.504;13.358;2023-08-24T13:34:18;6.75;;;3.10;;
41568;SDS011;27283;52.504;13.358;2023-08-24T13:37:07;7.60;;;2.90;;
41568;SDS011;27283;52.504;13.358;2023-08-24T13:41:13;5.05;;;3.10;;
41568;SDS011;27283;52.504;13.358;2023-08-24T13:43:47;5.82;;;3.05;;
41568;SDS011;27283;52.504;13.358;2023-08-24T13:46:32;6.20;;;3.30;;
41568;SDS011;27283;52.504;13.358;2023-08-24T13:49:23;7.60;;;3.03;;
41568;SDS011;27283;52.504;13.358;2023-08-24T13:52:12;6.60;;;3.13;;
41568;SDS011;27283;52.504;13.358;2023-08-24T13:54:47;5.40;;;3.20;;
41568;SDS011;27283;52.504;13.358;2023-08-24T13:57:54;6.30;;;3.08;;
41568;SDS011;27283;52.504;13.358;2023-08-24T14:01:17;5.72;;;2.90;;
41568;SDS011;27283;52.504;13.358;2023-08-24T14:04:28;9.00;;;2.60;;
41568;SDS011;27283;52.504;13.358;2023-08-24T14:07:01;7.55;;;2.85;;
41568;SDS011;27283;52.504;13.358;2023-08-24T14:09:34;6.75;;;3.15;;
41568;SDS011;27283;52.504;13.358;2023-08-24T14:12:19;5.22;;;3.00;;
41568;SDS011;27283;52.504;13.358;2023-08-24T14:14:55;6.53;;;3.10;;
41568;SDS011;27283;52.504;13.358;2023-08-24T14:17:28;5.18;;;3.25;;
41568;SDS011;27283;52.504;13.358;2023-08-24T14:20:04;6.55;;;3.38;;
41568;SDS011;27283;52.504;13.358;2023-08-24T14:22:37;6.20;;;3.20;;
41568;SDS011;27283;52.504;13.358;2023-08-24T14:25:19;7.07;;;2.80;;
41568;SDS011;27283;52.504;13.358;2023-08-24T14:27:59;5.32;;;3.20;;
41568;SDS011;27283;52.504;13.358;2023-08-24T14:30:38;5.38;;;2.72;;
41568;SDS011;27283;52.504;13.358;2023-08-24T14:33:10;5.35;;;2.80;;
41568;SDS011;27283;52.504;13.358;2023-08-24T14:39:13;8.50;;;2.80;;
41568;SDS011;27283;52.504;13.358;2023-08-24T14:42:03;4.85;;;2.50;;
41568;SDS011;27283;52.504;13.358;2023-08-24T14:44:40;5.95;;;2.63;;
41568;SDS011;27283;52.504;13.358;2023-08-24T14:47:15;8.07;;;3.15;;
41568;SDS011;27283;52.504;13.358;2023-08-24T14:49:54;4.47;;;2.90;;
41568;SDS011;27283;52.504;13.358;2023-08-24T14:52:27;5.53;;;2.90;;
41568;SDS011;27283;52.504;13.358;2023-08-24T14:55:02;4.28;;;2.45;;
41568;SDS011;27283;52.504;13.358;2023-08-24T14:57:40;7.68;;;2.92;;
41568;SDS011;27283;52.504;13.358;2023-08-24T15:00:17;8.30;;;3.17;;
41568;SDS011;27283;52.504;13.358;2023-08-24T15:02:56;4.88;;;2.67;;
41568;SDS011;27283;52.504;13.358;2023-08-24T15:05:41;9.35;;;3.10;;
41568;SDS011;27283;52.504;13.358;2023-08-24T15:11:20;4.78;;;3.05;;
41568;SDS011;27283;52.504;13.358;2023-08-24T15:13:54;8.63;;;3.10;;
41568;SDS011;27283;52.504;13.358;2023-08-24T15:16:28;7.55;;;3.28;;
41568;SDS011;27283;52.504;13.358;2023-08-24T15:19:10;7.63;;;3.15;;
41568;SDS011;27283;52.504;13.358;2023-08-24T15:22:13;7.75;;;3.00;;
41568;SDS011;27283;52.504;13.358;2023-08-24T15:25:14;7.43;;;3.22;;
41568;SDS011;27283;52.504;13.358;2023-08-24T15:27:51;5.30;;;3.08;;
41568;SDS011;27283;52.504;13.358;2023-08-24T15:30:39;7.18;;;3.17;;
41568;SDS011;27283;52.504;13.358;2023-08-24T15:33:11;5.05;;;2.70;;
41568;SDS011;27283;52.504;13.358;2023-08-24T15:35:47;5.60;;;3.40;;
41568;SDS011;27283;52.504;13.358;2023-08-24T15:38:34;6.25;;;3.05;;
41568;SDS011;27283;52.504;13.358;2023-08-24T15:41:36;5.28;;;3.22;;
41568;SDS011;27283;52.504;13.358;2023-08-24T15:44:21;7.65;;;3.15;;
41568;SDS011;27283;52.504;13.358;2023-08-24T15:47:09;6.13;;;3.30;;
41568;SDS011;27283;52.504;13.358;2023-08-24T15:49:53;4.72;;;3.10;;
41568;SDS011;27283;52.504;13.358;2023-08-24T15:52:26;5.90;;;3.40;;
41568;SDS011;27283;52.504;13.358;2023-08-24T15:54:59;7.68;;;3.00;;
41568;SDS011;27283;52.504;13.358;2023-08-24T15:57:32;7.88;;;3.20;;
41568;SDS011;27283;52.504;13.358;2023-08-24T16:00:09;5.28;;;3.05;;
41568;SDS011;27283;52.504;13.358;2023-08-24T16:03:02;6.50;;;3.30;;
41568;SDS011;27283;52.504;13.358;2023-08-24T16:05:44;6.05;;;3.17;;
41568;SDS011;27283;52.504;13.358;2023-08-24T16:08:21;4.53;;;2.72;;
41568;SDS011;27283;52.504;13.358;2023-08-24T16:10:55;7.30;;;3.30;;
41568;SDS011;27283;52.504;13.358;2023-08-24T16:13:36;8.25;;;3.38;;
41568;SDS011;27283;52.504;13.358;2023-08-24T16:19:52;5.93;;;3.28;;
41568;SDS011;27283;52.504;13.358;2023-08-24T16:22:24;7.35;;;3.35;;
41568;SDS011;27283;52.504;13.358;2023-08-24T16:25:53;4.82;;;3.40;;
41568;SDS011;27283;52.504;13.358;2023-08-24T16:28:26;5.60;;;3.22;;
41568;SDS011;27283;52.504;13.358;2023-08-24T16:31:31;12.00;;;3.33;;